Terminal Aerodrome Forecast
Issued by NWS Shreveport, LA

Home | Current Version | Previous Version | Text Only | Print | Product List | Glossary On
Versions: 1 2 3 4 5 6 7 8 9 10 11 12 13 14 15 16 17 18 19
610
FTUS44 KSHV 231740
TAFTXK
TAF
KTXK 231740Z 2318/2418 19010KT P6SM SKC
     FM240100 16009KT P6SM SKC
     FM241100 16012KT P6SM SCT015 BKN025
     FM241400 17014G22KT P6SM VCSH OVC015=

USA.gov is the U.S. government's official web portal to all federal, state and local government web resources and services.